Time;durP1;ratioP1;P1;durP2;ratioP2;P2;SDS_P1;SDS_P2;PMS_P1;PMS_P2;Temp;Humidity;BMP_temperature;BMP_pressure;BME280_temperature;BME280_humidity;BME280_pressure;Samples;Min_cycle;Max_cycle;Signal;HPM_P1;HPM_P2
2022/06/25 00:02:21;;;;;;;0.40;0.40;;;15.70;99.90;;;;;;5035793;28;20249;-72
2022/06/25 00:07:31;;;;;;;0.30;0.30;;;15.70;99.90;;;;;;5035368;28;20225;-73
2022/06/25 00:09:56;;;;;;;0.43;0.43;;;15.50;99.90;;;;;;5035092;28;20545;-73
2022/06/25 00:12:34;;;;;;;0.30;0.30;;;15.60;99.90;;;;;;5035337;28;20223;-73
2022/06/25 00:15:04;;;;;;;0.40;0.40;;;15.60;99.90;;;;;;5035354;28;20278;-74
2022/06/25 00:17:30;;;;;;;0.30;0.30;;;15.50;99.90;;;;;;5035254;28;20206;-73
2022/06/25 00:19:56;;;;;;;0.30;0.30;;;15.50;99.90;;;;;;5034683;28;20207;-73
2022/06/25 00:22:22;;;;;;;0.30;0.30;;;15.50;99.90;;;;;;5035333;28;20195;-73
2022/06/25 00:24:47;;;;;;;0.40;0.40;;;15.40;99.90;;;;;;5035147;28;20230;-73
2022/06/25 00:27:13;;;;;;;0.30;0.30;;;15.40;99.90;;;;;;5035016;28;20221;-73
2022/06/25 00:29:38;;;;;;;0.30;0.30;;;15.30;99.90;;;;;;5034297;28;20545;-73
2022/06/25 00:32:04;;;;;;;0.30;0.30;;;15.20;99.90;;;;;;5034833;28;20196;-74
2022/06/25 00:34:30;;;;;;;0.30;0.30;;;15.20;99.90;;;;;;5034715;28;20257;-73
2022/06/25 00:36:56;;;;;;;0.40;0.40;;;15.20;99.90;;;;;;5034920;28;20614;-73
2022/06/25 00:39:21;;;;;;;0.30;0.30;;;15.10;99.90;;;;;;5034510;28;20728;-73
2022/06/25 00:41:47;;;;;;;0.40;0.40;;;15.10;99.90;;;;;;5033213;28;20219;-73
2022/06/25 00:44:12;;;;;;;0.40;0.40;;;15.00;99.90;;;;;;5034861;28;20556;-73
2022/06/25 00:46:38;;;;;;;0.30;0.30;;;15.00;99.90;;;;;;5034562;28;20530;-74
2022/06/25 00:49:04;;;;;;;0.30;0.30;;;15.00;99.90;;;;;;5034153;28;20175;-73
2022/06/25 00:51:34;;;;;;;0.40;0.40;;;15.00;99.90;;;;;;5034503;28;20299;-73
2022/06/25 00:54:04;;;;;;;0.40;0.40;;;14.90;99.90;;;;;;5034566;28;20594;-73
2022/06/25 00:56:35;;;;;;;0.40;0.40;;;14.90;99.90;;;;;;5034502;28;20241;-73
2022/06/25 00:59:04;;;;;;;0.40;0.40;;;14.90;99.90;;;;;;5034035;28;20168;-73
2022/06/25 01:01:32;;;;;;;0.40;0.40;;;14.80;99.90;;;;;;5034128;28;20603;-73
2022/06/25 01:03:57;;;;;;;0.40;0.40;;;14.80;99.90;;;;;;5034697;28;20183;-73
2022/06/25 01:06:23;;;;;;;0.30;0.30;;;14.80;99.90;;;;;;5034447;28;20172;-73
2022/06/25 01:08:49;;;;;;;0.40;0.40;;;14.80;99.90;;;;;;5033393;28;20262;-73
2022/06/25 01:11:15;;;;;;;0.30;0.30;;;14.80;99.90;;;;;;5033811;28;20234;-73
2022/06/25 01:13:40;;;;;;;0.30;0.30;;;14.80;99.90;;;;;;5034194;28;20168;-73
2022/06/25 01:16:06;;;;;;;0.40;0.40;;;14.70;99.90;;;;;;5033955;28;20245;-73
2022/06/25 01:18:32;;;;;;;0.40;0.40;;;14.60;99.90;;;;;;5034334;28;20168;-73
2022/06/25 01:20:59;;;;;;;0.40;0.40;;;14.60;99.90;;;;;;5033709;28;20176;-73
2022/06/25 01:23:24;;;;;;;0.50;0.50;;;14.60;99.90;;;;;;5034048;28;20230;-73
2022/06/25 01:25:50;;;;;;;0.40;0.40;;;14.50;99.90;;;;;;5034048;28;20211;-73
2022/06/25 01:28:16;;;;;;;0.40;0.40;;;14.50;99.90;;;;;;5033872;28;20175;-73
2022/06/25 01:30:41;;;;;;;0.40;0.40;;;14.40;99.90;;;;;;5033346;28;20258;-75
2022/06/25 01:33:08;;;;;;;0.40;0.40;;;14.40;99.90;;;;;;5034069;28;20688;-73
2022/06/25 01:35:34;;;;;;;0.40;0.40;;;14.40;99.90;;;;;;5033782;28;20212;-73
2022/06/25 01:38:00;;;;;;;0.40;0.40;;;14.40;99.90;;;;;;5034056;28;20183;-73
2022/06/25 01:40:25;;;;;;;0.43;0.43;;;14.40;99.90;;;;;;5033352;28;20229;-73
2022/06/25 01:43:00;;;;;;;0.40;0.40;;;14.30;99.90;;;;;;5033886;28;20204;-72
2022/06/25 01:45:28;;;;;;;0.40;0.40;;;14.30;99.90;;;;;;5033749;28;20174;-73
2022/06/25 01:47:54;;;;;;;0.40;0.40;;;14.30;99.90;;;;;;5033484;28;20656;-72
2022/06/25 01:50:19;;;;;;;0.30;0.30;;;14.30;99.90;;;;;;5033088;28;20217;-73
2022/06/25 01:52:48;;;;;;;0.30;0.30;;;14.20;99.90;;;;;;5033412;28;20190;-72
2022/06/25 01:55:15;;;;;;;0.40;0.40;;;14.20;99.90;;;;;;5033330;28;20597;-72
2022/06/25 01:57:40;;;;;;;0.40;0.40;;;14.20;99.90;;;;;;5036642;28;20206;-72
2022/06/25 02:00:10;;;;;;;0.30;0.30;;;14.20;99.90;;;;;;5032990;28;20179;-72
2022/06/25 02:02:37;;;;;;;0.40;0.40;;;14.20;99.90;;;;;;5033537;28;20203;-73
2022/06/25 02:05:04;;;;;;;0.30;0.30;;;14.20;99.90;;;;;;5033267;28;20625;-73
2022/06/25 02:07:30;;;;;;;0.40;0.40;;;14.20;99.90;;;;;;5033223;28;20180;-73
2022/06/25 02:09:55;;;;;;;0.50;0.50;;;14.20;99.90;;;;;;5032632;28;20258;-73
2022/06/25 02:12:21;;;;;;;0.40;0.40;;;14.20;99.90;;;;;;5032881;28;20549;-73
2022/06/25 02:14:46;;;;;;;0.30;0.30;;;14.20;99.90;;;;;;5033111;28;20203;-73
2022/06/25 02:17:12;;;;;;;0.40;0.40;;;14.20;99.90;;;;;;5033018;28;20687;-73
2022/06/25 02:19:37;;;;;;;0.37;0.37;;;14.20;99.90;;;;;;5032199;28;20179;-73
2022/06/25 02:22:03;;;;;;;0.40;0.40;;;14.20;99.90;;;;;;5032884;28;20196;-73
2022/06/25 02:24:29;;;;;;;0.40;0.40;;;14.20;99.90;;;;;;5032747;28;20184;-73
2022/06/25 02:26:54;;;;;;;0.50;0.50;;;14.10;99.90;;;;;;5032565;28;20236;-73
2022/06/25 02:29:20;;;;;;;0.40;0.40;;;14.10;99.90;;;;;;5032344;28;20176;-73
2022/06/25 02:31:45;;;;;;;0.33;0.33;;;14.00;99.90;;;;;;5032531;28;20625;-73
2022/06/25 02:34:11;;;;;;;0.40;0.40;;;14.10;99.90;;;;;;5032682;28;20186;-73
2022/06/25 02:36:36;;;;;;;0.50;0.50;;;14.00;99.90;;;;;;5032570;28;20226;-74
2022/06/25 02:39:02;;;;;;;0.50;0.50;;;14.00;99.90;;;;;;5031914;28;20263;-75
2022/06/25 02:41:28;;;;;;;0.40;0.40;;;14.00;99.90;;;;;;5032246;28;20222;-74
2022/06/25 02:43:53;;;;;;;0.30;0.30;;;14.00;99.90;;;;;;5032482;28;20238;-74
2022/06/25 02:46:19;;;;;;;0.40;0.40;;;13.90;99.90;;;;;;5032430;28;20172;-74
2022/06/25 02:48:44;;;;;;;0.40;0.40;;;13.90;99.90;;;;;;5032603;28;20643;-74
2022/06/25 02:51:10;;;;;;;0.40;0.40;;;13.80;99.90;;;;;;5031677;28;20649;-74
2022/06/25 02:53:35;;;;;;;0.40;0.40;;;13.80;99.90;;;;;;5032158;28;20616;-73
2022/06/25 02:58:54;;;;;;;0.40;0.40;;;13.80;99.90;;;;;;5032012;28;20222;-74
2022/06/25 03:01:20;;;;;;;0.30;0.30;;;13.80;99.90;;;;;;5032093;28;20203;-74
2022/06/25 03:03:45;;;;;;;0.37;0.37;;;13.80;99.90;;;;;;5032201;28;20167;-74
2022/06/25 03:06:11;;;;;;;0.40;0.40;;;13.80;99.90;;;;;;5031909;28;20259;-74
2022/06/25 03:08:37;;;;;;;0.40;0.40;;;13.70;99.90;;;;;;5031812;28;20724;-74
2022/06/25 03:11:02;;;;;;;0.30;0.30;;;13.70;99.90;;;;;;5031610;28;20707;-74
2022/06/25 03:13:31;;;;;;;0.30;0.30;;;13.80;99.90;;;;;;5031978;28;20517;-74
2022/06/25 03:15:57;;;;;;;0.40;0.40;;;13.80;99.90;;;;;;5031943;28;20262;-73
2022/06/25 03:18:22;;;;;;;0.30;0.30;;;13.80;99.90;;;;;;5031878;28;20552;-74
2022/06/25 03:20:50;;;;;;;0.40;0.40;;;13.70;99.90;;;;;;5031204;28;20587;-73
2022/06/25 03:23:16;;;;;;;0.30;0.30;;;13.70;99.90;;;;;;5031529;28;20198;-74
2022/06/25 03:25:41;;;;;;;0.30;0.30;;;13.70;99.90;;;;;;5031690;28;20671;-73
2022/06/25 03:28:07;;;;;;;0.30;0.30;;;13.60;99.90;;;;;;5031905;28;20196;-74
2022/06/25 03:30:33;;;;;;;0.30;0.30;;;13.60;99.90;;;;;;5031359;28;20559;-75
2022/06/25 03:32:59;;;;;;;0.40;0.40;;;13.60;99.90;;;;;;5031261;28;20192;-75
2022/06/25 03:35:24;;;;;;;0.37;0.37;;;13.50;99.90;;;;;;5031375;28;20235;-74
2022/06/25 03:37:50;;;;;;;0.30;0.30;;;13.50;99.90;;;;;;5031522;28;20183;-75
2022/06/25 03:40:16;;;;;;;0.40;0.40;;;13.40;99.90;;;;;;5031181;28;20230;-74
2022/06/25 03:42:42;;;;;;;0.40;0.40;;;13.50;99.90;;;;;;5031500;28;20344;-75
2022/06/25 03:45:09;;;;;;;0.30;0.30;;;13.50;99.90;;;;;;5030407;28;20180;-74
2022/06/25 03:47:34;;;;;;;0.40;0.40;;;13.50;99.90;;;;;;5031527;28;20283;-74
2022/06/25 03:50:00;;;;;;;0.43;0.43;;;13.50;99.90;;;;;;5030978;28;20692;-75
2022/06/25 03:52:25;;;;;;;0.40;0.40;;;13.50;99.90;;;;;;5030962;28;20249;-73
2022/06/25 03:54:51;;;;;;;0.40;0.40;;;13.50;99.90;;;;;;5031506;28;20229;-74
2022/06/25 03:57:17;;;;;;;0.50;0.50;;;13.60;99.90;;;;;;5031335;28;20366;-73
2022/06/25 03:59:42;;;;;;;0.50;0.50;;;13.60;99.90;;;;;;5031236;28;20271;-72
2022/06/25 04:02:08;;;;;;;0.30;0.30;;;13.60;99.90;;;;;;5031407;28;20656;-73
2022/06/25 04:04:33;;;;;;;0.40;0.40;;;13.70;99.90;;;;;;5031268;28;20665;-72
2022/06/25 04:06:59;;;;;;;0.30;0.30;;;13.80;99.90;;;;;;5031129;28;20184;-73
2022/06/25 04:09:24;;;;;;;0.40;0.40;;;13.80;99.90;;;;;;5031018;28;20219;-73
2022/06/25 04:11:49;;;;;;;0.40;0.40;;;13.80;99.90;;;;;;5031530;28;20196;-73
2022/06/25 04:14:15;;;;;;;0.40;0.40;;;13.80;99.90;;;;;;5031291;28;20184;-73
2022/06/25 04:16:41;;;;;;;0.40;0.40;;;13.90;99.90;;;;;;5030946;28;20679;-74
2022/06/25 04:19:06;;;;;;;0.40;0.40;;;14.00;99.90;;;;;;5030680;28;20180;-73
2022/06/25 04:21:32;;;;;;;0.40;0.40;;;14.10;99.90;;;;;;5030807;28;20250;-74
2022/06/25 04:23:58;;;;;;;0.40;0.40;;;14.20;99.90;;;;;;5031297;28;20230;-74
2022/06/25 04:26:23;;;;;;;0.40;0.40;;;14.30;99.90;;;;;;5031146;28;20184;-75
2022/06/25 04:29:04;;;;;;;0.40;0.40;;;14.40;99.90;;;;;;5031077;28;20215;-73
2022/06/25 04:31:35;;;;;;;0.40;0.40;;;14.50;99.90;;;;;;5031075;28;20254;-74
2022/06/25 04:34:01;;;;;;;0.40;0.40;;;14.60;99.90;;;;;;5031007;28;20180;-73
2022/06/25 04:36:27;;;;;;;0.50;0.50;;;14.60;99.90;;;;;;5030754;28;20707;-73
2022/06/25 04:38:53;;;;;;;0.43;0.43;;;14.70;99.90;;;;;;5030713;28;20640;-72
2022/06/25 04:41:19;;;;;;;0.40;0.40;;;14.90;99.90;;;;;;5031257;28;20187;-73
2022/06/25 04:43:45;;;;;;;0.40;0.40;;;15.10;99.90;;;;;;5031762;28;20176;-74
2022/06/25 04:46:11;;;;;;;0.40;0.40;;;15.10;99.90;;;;;;5034606;28;20230;-72
2022/06/25 04:48:36;;;;;;;0.50;0.50;;;15.10;99.90;;;;;;5034349;28;20568;-72
2022/06/25 04:51:02;;;;;;;0.40;0.40;;;15.20;99.90;;;;;;5034116;28;20183;-72
2022/06/25 04:53:28;;;;;;;0.40;0.40;;;15.30;99.90;;;;;;5034399;28;20206;-73
2022/06/25 04:55:54;;;;;;;0.30;0.30;;;15.40;99.90;;;;;;5034429;28;20303;-73
2022/06/25 04:58:20;;;;;;;0.40;0.40;;;15.50;99.90;;;;;;5034371;28;20255;-74
2022/06/25 05:00:45;;;;;;;0.40;0.40;;;15.70;99.90;;;;;;5033927;28;20698;-73
2022/06/25 05:03:11;;;;;;;0.40;0.40;;;15.80;99.90;;;;;;5034037;28;20203;-73
2022/06/25 05:05:37;;;;;;;0.40;0.40;;;15.90;99.90;;;;;;5034473;28;20184;-73
2022/06/25 05:08:03;;;;;;;0.40;0.40;;;16.10;99.90;;;;;;5034384;28;20180;-75
2022/06/25 05:10:29;;;;;;;0.40;0.40;;;16.30;99.90;;;;;;5033776;28;20263;-72
2022/06/25 05:13:12;;;;;;;0.50;0.50;;;16.50;99.90;;;;;;5034062;28;20628;-71
2022/06/25 05:15:40;;;;;;;0.30;0.30;;;16.60;99.90;;;;;;5033880;28;20248;-71
2022/06/25 05:18:09;;;;;;;0.37;0.37;;;16.70;99.90;;;;;;5034284;28;20199;-71
2022/06/25 05:20:43;;;;;;;0.40;0.40;;;16.80;99.90;;;;;;5033383;28;20589;-72
2022/06/25 05:23:09;;;;;;;0.30;0.30;;;16.70;99.90;;;;;;5033798;28;20188;-74
2022/06/25 05:25:35;;;;;;;0.30;0.30;;;16.70;99.90;;;;;;5033854;28;20184;-72
2022/06/25 05:28:01;;;;;;;0.40;0.40;;;16.80;99.90;;;;;;5033712;28;20176;-73
2022/06/25 05:30:26;;;;;;;0.33;0.33;;;16.90;99.90;;;;;;5032924;28;20230;-76
2022/06/25 05:32:52;;;;;;;0.40;0.40;;;16.80;99.90;;;;;;5030456;28;20192;-72
2022/06/25 05:35:18;;;;;;;0.40;0.40;;;16.90;99.90;;;;;;5033142;28;20192;-73
2022/06/25 05:37:43;;;;;;;0.30;0.30;;;17.00;99.90;;;;;;5033512;28;20184;-72
2022/06/25 05:40:09;;;;;;;0.40;0.40;;;17.00;99.90;;;;;;5033157;28;20263;-72
2022/06/25 05:42:36;;;;;;;0.30;0.30;;;17.00;99.90;;;;;;5033324;28;20338;-72
2022/06/25 05:45:02;;;;;;;0.30;0.30;;;17.10;99.90;;;;;;5033361;28;20303;-72
2022/06/25 05:47:28;;;;;;;0.30;0.30;;;17.00;99.90;;;;;;5033329;28;20186;-72
2022/06/25 05:49:54;;;;;;;0.30;0.30;;;16.90;99.90;;;;;;5032664;28;20511;-72
2022/06/25 05:52:19;;;;;;;0.30;0.30;;;16.90;99.90;;;;;;5032623;28;20199;-72
2022/06/25 05:54:45;;;;;;;0.43;0.43;;;17.10;99.90;;;;;;5034326;28;20218;-71
2022/06/25 05:57:10;;;;;;;0.40;0.40;;;17.10;99.90;;;;;;5033305;28;20303;-73
2022/06/25 05:59:36;;;;;;;0.40;0.40;;;17.30;99.90;;;;;;5032315;28;20263;-72
2022/06/25 06:02:01;;;;;;;0.40;0.40;;;17.40;99.90;;;;;;5033195;28;20640;-72
2022/06/25 06:04:27;;;;;;;0.30;0.30;;;17.40;99.90;;;;;;5033278;28;20259;-73
2022/06/25 06:06:52;;;;;;;0.30;0.30;;;17.40;99.90;;;;;;5033223;28;20176;-72
2022/06/25 06:09:18;;;;;;;0.30;0.30;;;17.50;99.90;;;;;;5032659;28;20172;-72
2022/06/25 06:11:44;;;;;;;0.40;0.40;;;17.60;99.90;;;;;;5032875;28;20747;-72
2022/06/25 06:14:10;;;;;;;0.30;0.30;;;17.60;99.90;;;;;;5032780;28;20175;-73
2022/06/25 06:16:35;;;;;;;0.30;0.30;;;17.50;99.90;;;;;;5033171;28;20211;-72
2022/06/25 06:19:01;;;;;;;0.40;0.40;;;17.50;99.90;;;;;;5032623;28;20179;-73
2022/06/25 06:21:28;;;;;;;0.40;0.40;;;17.50;99.90;;;;;;5032918;28;20223;-70
2022/06/25 06:23:53;;;;;;;0.47;0.47;;;17.50;99.90;;;;;;5032826;28;20175;-70
2022/06/25 06:26:19;;;;;;;0.30;0.30;;;17.60;99.90;;;;;;5032765;28;20183;-70
2022/06/25 06:28:45;;;;;;;0.40;0.40;;;17.50;99.90;;;;;;5030857;28;20184;-72
2022/06/25 06:31:11;;;;;;;0.40;0.40;;;17.60;99.90;;;;;;5031418;28;20671;-73
2022/06/25 06:33:36;;;;;;;0.40;0.40;;;17.60;99.90;;;;;;5032268;28;20660;-74
2022/06/25 06:36:02;;;;;;;0.30;0.30;;;17.80;99.90;;;;;;5031807;28;20617;-73
2022/06/25 06:38:28;;;;;;;0.40;0.40;;;17.90;99.90;;;;;;5032575;28;20183;-72
2022/06/25 06:40:53;;;;;;;0.40;0.40;;;17.90;99.90;;;;;;5032011;28;20628;-73
2022/06/25 06:43:19;;;;;;;0.40;0.40;;;17.80;99.90;;;;;;5032161;28;20684;-74
2022/06/25 06:45:44;;;;;;;0.30;0.30;;;18.00;99.90;;;;;;5032438;28;20267;-73
2022/06/25 06:48:10;;;;;;;0.30;0.30;;;18.10;99.90;;;;;;5032551;28;20218;-74
2022/06/25 06:50:36;;;;;;;0.30;0.30;;;18.20;37.40;;;;;;5031617;28;20176;-74
2022/06/25 06:53:01;;;;;;;0.40;0.40;;;18.20;71.10;;;;;;5032033;28;20199;-73
2022/06/25 06:55:27;;;;;;;0.30;0.30;;;18.40;99.90;;;;;;5032119;28;20360;-74
2022/06/25 06:57:52;;;;;;;0.30;0.30;;;18.60;99.90;;;;;;5032026;28;20172;-74
2022/06/25 07:00:18;;;;;;;0.30;0.30;;;18.70;1.00;;;;;;5031501;28;20172;-74
2022/06/25 07:02:43;;;;;;;0.40;0.40;;;18.80;7.30;;;;;;5032055;28;20279;-74
2022/06/25 07:05:09;;;;;;;0.30;0.30;;;18.90;1.00;;;;;;5032146;28;20200;-74
2022/06/25 07:07:35;;;;;;;0.37;0.37;;;18.90;1.00;;;;;;5031364;28;20633;-74
2022/06/25 07:10:00;;;;;;;0.30;0.30;;;18.80;1.00;;;;;;5031386;28;20520;-74
2022/06/25 07:12:26;;;;;;;0.30;0.30;;;18.90;1.00;;;;;;5031693;28;20694;-74
2022/06/25 07:14:51;;;;;;;0.30;0.30;;;19.00;1.00;;;;;;5032055;28;20218;-74
2022/06/25 07:17:17;;;;;;;0.30;0.30;;;19.00;1.00;;;;;;5031783;28;20176;-74
2022/06/25 07:19:42;;;;;;;0.30;0.30;;;19.10;1.00;;;;;;5031407;28;20203;-73
2022/06/25 07:22:08;;;;;;;0.30;0.30;;;19.20;1.00;;;;;;5031629;28;20199;-74
2022/06/25 07:24:34;;;;;;;0.40;0.40;;;19.40;1.00;;;;;;5031626;28;20172;-74
2022/06/25 07:26:59;;;;;;;0.40;0.40;;;19.70;1.00;;;;;;5031606;28;20262;-74
2022/06/25 07:29:25;;;;;;;0.40;0.40;;;19.90;1.00;;;;;;5031300;28;20214;-74
2022/06/25 07:31:51;;;;;;;0.30;0.30;;;20.00;1.00;;;;;;5031635;28;20207;-74
2022/06/25 07:34:17;;;;;;;0.30;0.30;;;20.10;1.00;;;;;;5031605;28;20172;-73
2022/06/25 07:36:43;;;;;;;0.40;0.40;;;20.20;1.00;;;;;;5029762;28;20223;-74
2022/06/25 07:39:08;;;;;;;0.30;0.30;;;20.50;1.00;;;;;;5025565;28;20660;-74
2022/06/25 07:41:34;;;;;;;0.50;0.50;;;20.60;1.00;;;;;;5019834;28;20235;-73
2022/06/25 07:43:59;;;;;;;0.30;0.30;;;20.80;1.00;;;;;;5035904;28;20171;-74
2022/06/25 07:46:25;;;;;;;0.40;0.40;;;20.90;1.00;;;;;;5037734;28;20191;-74
2022/06/25 07:48:50;;;;;;;0.30;0.30;;;21.00;1.00;;;;;;5037559;28;20191;-74
2022/06/25 07:54:00;;;;;;;0.30;0.30;;;21.10;99.90;;;;;;5030156;28;20182;-73
2022/06/25 07:56:26;;;;;;;0.30;0.30;;;21.30;1.00;;;;;;5028123;28;20208;-74
2022/06/25 07:58:52;;;;;;;0.40;0.40;;;21.50;99.90;;;;;;5032600;28;20182;-73
2022/06/25 08:01:17;;;;;;;0.30;0.30;;;22.00;99.90;;;;;;5040357;28;20296;-73
2022/06/25 08:03:43;;;;;;;0.30;0.30;;;22.40;1.00;;;;;;5023379;28;20190;-74
2022/06/25 08:06:10;;;;;;;0.20;0.20;;;22.40;99.90;;;;;;5027519;28;20187;-75
2022/06/25 08:08:35;;;;;;;0.33;0.33;;;22.80;1.00;;;;;;5027228;28;20226;-75
2022/06/25 08:11:01;;;;;;;0.23;0.23;;;23.10;99.90;;;;;;5031343;28;20180;-75
2022/06/25 08:13:27;;;;;;;0.30;0.30;;;23.30;99.90;;;;;;5029962;28;20742;-74
2022/06/25 08:15:53;;;;;;;0.40;0.40;;;23.50;99.90;;;;;;5030173;28;20212;-73
2022/06/25 08:18:19;;;;;;;0.37;0.37;;;23.90;99.90;;;;;;5032157;28;20259;-74
2022/06/25 08:20:45;;;;;;;0.40;0.40;;;24.20;32.90;;;;;;5033430;28;20242;-74
2022/06/25 08:23:10;;;;;;;0.40;0.40;;;24.50;27.10;;;;;;5033502;28;20200;-73
2022/06/25 08:25:36;;;;;;;0.40;0.40;;;24.40;1.00;;;;;;5046259;28;20554;-74
2022/06/25 08:28:02;;;;;;;0.50;0.50;;;24.60;47.50;;;;;;5054962;28;20194;-74
2022/06/25 08:30:27;;;;;;;0.40;0.40;;;24.70;1.00;;;;;;5054435;28;20175;-74
2022/06/25 08:32:54;;;;;;;0.40;0.40;;;24.70;1.00;;;;;;5054944;28;20199;-74
2022/06/25 08:35:20;;;;;;;0.30;0.30;;;24.70;1.00;;;;;;5054758;28;20203;-74
2022/06/25 08:37:48;;;;;;;0.33;0.33;;;24.90;1.00;;;;;;5052032;28;20187;-73
2022/06/25 08:40:15;;;;;;;0.50;0.50;;;25.30;1.00;;;;;;5045927;28;20163;-73
2022/06/25 08:42:42;;;;;;;0.40;0.40;;;25.30;1.00;;;;;;5054502;28;20263;-73
2022/06/25 08:45:08;;;;;;;0.50;0.50;;;25.50;1.00;;;;;;5054526;28;20176;-73
2022/06/25 08:47:34;;;;;;;0.50;0.50;;;25.90;1.00;;;;;;5043846;28;20184;-75
2022/06/25 08:50:02;;;;;;;0.40;0.40;;;26.20;1.00;;;;;;5025987;28;20210;-76
2022/06/25 08:52:28;;;;;;;0.50;0.50;;;26.30;1.00;;;;;;5028094;28;20219;-76
2022/06/25 08:54:55;;;;;;;0.40;0.40;;;26.70;1.00;;;;;;5024200;28;20172;-75
2022/06/25 08:57:21;;;;;;;0.50;0.50;;;27.00;1.00;;;;;;5034225;28;20192;-76
2022/06/25 08:59:47;;;;;;;0.60;0.60;;;27.00;1.00;;;;;;5034014;28;20237;-76
2022/06/25 09:02:13;;;;;;;0.40;0.40;;;27.00;1.00;;;;;;5033881;28;20206;-77
2022/06/25 09:04:38;;;;;;;0.57;0.57;;;26.80;1.00;;;;;;5027491;28;20176;-76
2022/06/25 09:07:17;;;;;;;0.40;0.40;;;26.80;1.00;;;;;;5036862;28;20279;-76
2022/06/25 09:09:47;;;;;;;0.37;0.37;;;27.10;1.00;;;;;;5042565;28;20178;-74
2022/06/25 09:12:14;;;;;;;0.60;0.60;;;27.30;1.00;;;;;;5034408;28;20250;-75
2022/06/25 09:14:40;;;;;;;0.50;0.50;;;27.30;1.00;;;;;;5041528;28;20186;-75
2022/06/25 09:17:14;;;;;;;0.40;0.40;;;27.50;1.00;;;;;;5034355;28;20207;-75
2022/06/25 09:19:48;;;;;;;0.37;0.37;;;27.40;1.00;;;;;;5034208;28;20179;-75
2022/06/25 09:22:15;;;;;;;0.50;0.50;;;27.10;1.00;;;;;;5034106;28;20551;-76
2022/06/25 09:24:45;;;;;;;0.50;0.50;;;26.70;1.00;;;;;;5033797;28;20176;-75
2022/06/25 09:27:11;;;;;;;0.60;0.60;;;26.90;1.00;;;;;;5033647;28;20572;-75
2022/06/25 09:29:51;;;;;;;0.50;0.50;;;27.10;1.00;;;;;;5032276;28;20180;-75
2022/06/25 09:32:17;;;;;;;0.47;0.47;;;26.80;1.00;;;;;;5028734;28;20246;-74
2022/06/25 09:34:43;;;;;;;0.53;0.53;;;26.60;1.00;;;;;;5039778;28;20645;-75
2022/06/25 09:37:26;;;;;;;0.40;0.40;;;26.90;1.00;;;;;;5033464;28;20239;-75
2022/06/25 09:39:54;;;;;;;0.53;0.53;;;27.30;1.00;;;;;;5030331;28;20943;-75
2022/06/25 09:42:32;;;;;;;0.53;0.53;;;27.80;1.00;;;;;;5041405;28;20710;-75
2022/06/25 09:45:12;;;;;;;0.50;0.50;;;28.10;1.00;;;;;;5036313;28;20211;-76
2022/06/25 09:47:43;;;;;;;0.50;0.50;;;28.10;1.00;;;;;;5033486;28;20613;-75
2022/06/25 09:50:13;;;;;;;0.37;0.37;;;27.80;1.00;;;;;;5017510;28;20221;-75
2022/06/25 09:52:51;;;;;;;0.40;0.40;;;27.60;1.00;;;;;;5033023;28;20545;-74
2022/06/25 09:55:18;;;;;;;0.60;0.60;;;27.80;1.00;;;;;;5033182;28;20283;-74
2022/06/25 09:57:45;;;;;;;0.40;0.40;;;27.50;1.00;;;;;;5032034;28;20644;-75
2022/06/25 10:00:11;;;;;;;0.50;0.50;;;27.20;1.00;;;;;;5038729;28;20171;-75
2022/06/25 10:02:37;;;;;;;0.50;0.50;;;27.30;1.00;;;;;;5041454;28;20203;-75
2022/06/25 10:05:04;;;;;;;0.50;0.50;;;27.80;1.00;;;;;;5034516;28;20237;-76
2022/06/25 10:10:20;;;;;;;0.50;0.50;;;27.60;1.00;;;;;;5032748;28;20182;-76
2022/06/25 10:12:50;;;;;;;0.60;0.60;;;27.40;1.00;;;;;;5032836;28;20202;-75
2022/06/25 10:15:19;;;;;;;0.50;0.50;;;27.60;1.00;;;;;;5032936;28;20255;-76
2022/06/25 10:17:47;;;;;;;0.50;0.50;;;27.90;1.00;;;;;;5032631;28;20505;-76
2022/06/25 10:20:13;;;;;;;0.40;0.40;;;28.10;1.00;;;;;;5032673;28;20167;-76
2022/06/25 10:22:39;;;;;;;0.40;0.40;;;28.10;1.00;;;;;;5032892;28;20275;-75
2022/06/25 10:25:12;;;;;;;0.50;0.50;;;27.70;1.00;;;;;;5032741;28;20176;-75
2022/06/25 10:27:46;;;;;;;0.50;0.50;;;27.40;1.00;;;;;;5032962;28;20200;-75
2022/06/25 10:30:14;;;;;;;0.50;0.50;;;27.40;1.00;;;;;;5032238;28;20195;-75
2022/06/25 10:32:47;;;;;;;0.50;0.50;;;27.30;1.00;;;;;;5032705;28;20200;-75
2022/06/25 10:35:33;;;;;;;0.53;0.53;;;27.90;1.00;;;;;;5033020;28;20176;-75
2022/06/25 10:38:00;;;;;;;0.60;0.60;;;28.50;1.00;;;;;;5032679;28;20262;-75
2022/06/25 10:40:26;;;;;;;0.60;0.60;;;28.50;1.00;;;;;;5028666;28;20649;-76
2022/06/25 10:43:01;;;;;;;0.40;0.40;;;28.50;1.00;;;;;;5034653;28;20301;-75
2022/06/25 10:47:58;;;;;;;0.53;0.53;;;28.30;1.00;;;;;;5093336;28;20682;-79
2022/06/25 10:50:25;;;;;;;0.40;0.40;;;28.40;1.00;;;;;;5094538;28;20181;-79
2022/06/25 10:53:08;;;;;;;0.40;0.40;;;28.50;1.00;;;;;;5080068;28;20912;-78
2022/06/25 10:55:48;;;;;;;0.50;0.50;;;28.50;1.00;;;;;;5077723;28;20218;-78
2022/06/25 10:58:17;;;;;;;0.30;0.30;;;28.50;1.00;;;;;;5081780;28;20186;-78
2022/06/25 11:00:49;;;;;;;0.43;0.43;;;28.40;1.00;;;;;;5071315;28;20269;-78
2022/06/25 11:03:16;;;;;;;0.50;0.50;;;28.30;1.00;;;;;;5083725;28;20284;-79
2022/06/25 11:05:43;;;;;;;0.40;0.40;;;28.50;1.00;;;;;;5080989;28;20178;-78
2022/06/25 11:08:09;;;;;;;0.40;0.40;;;28.70;1.00;;;;;;5067742;28;20182;-78
2022/06/25 11:10:36;;;;;;;0.60;0.60;;;28.80;1.00;;;;;;5074389;28;20193;-79
2022/06/25 11:13:05;;;;;;;0.50;0.50;;;28.90;1.00;;;;;;5082286;28;20237;-78
2022/06/25 11:15:57;;;;;;;0.50;0.50;;;29.00;1.00;;;;;;5075400;28;20224;-82
2022/06/25 11:18:22;;;;;;;0.47;0.47;;;29.10;1.00;;;;;;5068736;28;20186;-77
2022/06/25 11:20:48;;;;;;;0.50;0.50;;;29.20;1.00;;;;;;5088900;28;20173;-76
2022/06/25 11:23:15;;;;;;;0.50;0.50;;;29.30;1.00;;;;;;5092778;28;20194;-77
2022/06/25 11:28:51;;;;;;;0.60;0.60;;;28.80;1.00;;;;;;5077125;28;20538;-79
2022/06/25 11:31:19;;;;;;;0.50;0.50;;;28.90;1.00;;;;;;5062943;28;20181;-79
2022/06/25 11:33:46;;;;;;;0.40;0.40;;;29.00;1.00;;;;;;5078133;28;20643;-79
2022/06/25 11:36:12;;;;;;;0.47;0.47;;;28.90;1.00;;;;;;5067935;28;20249;-78
2022/06/25 11:38:48;;;;;;;0.50;0.50;;;28.90;1.00;;;;;;5075301;28;20265;-78
2022/06/25 11:41:29;;;;;;;0.30;0.30;;;28.60;1.00;;;;;;5065113;28;20186;-78
2022/06/25 11:43:55;;;;;;;0.40;0.40;;;28.50;1.00;;;;;;5078506;28;20182;-79
2022/06/25 11:46:22;;;;;;;0.33;0.33;;;28.30;1.00;;;;;;5068869;28;20182;-78
2022/06/25 11:48:48;;;;;;;0.50;0.50;;;28.70;1.00;;;;;;5089934;28;20256;-78
2022/06/25 11:51:25;;;;;;;0.40;0.40;;;29.20;1.00;;;;;;5077225;28;20220;-79
2022/06/25 11:53:52;;;;;;;0.47;0.47;;;28.90;1.00;;;;;;5079042;28;20220;-79
2022/06/25 11:56:18;;;;;;;0.50;0.50;;;28.60;1.00;;;;;;5077722;28;20263;-78
2022/06/25 11:58:45;;;;;;;0.43;0.43;;;28.20;1.00;;;;;;5087922;28;20186;-78
2022/06/25 12:01:10;;;;;;;0.40;0.40;;;28.30;1.00;;;;;;5091578;28;20199;-78
2022/06/25 12:03:36;;;;;;;0.40;0.40;;;28.30;1.00;;;;;;5088932;28;20190;-78
2022/06/25 12:06:04;;;;;;;0.50;0.50;;;28.00;1.00;;;;;;5084113;28;20174;-78
2022/06/25 12:08:30;;;;;;;0.50;0.50;;;28.40;1.00;;;;;;5083524;28;20182;-78
2022/06/25 12:10:58;;;;;;;0.50;0.50;;;28.70;1.00;;;;;;5086964;28;20181;-79
2022/06/25 12:13:30;;;;;;;0.40;0.40;;;29.30;1.00;;;;;;5099460;28;20206;-78
2022/06/25 12:16:05;;;;;;;0.67;0.67;;;29.70;1.00;;;;;;5096029;28;20299;-79
2022/06/25 12:18:41;;;;;;;0.50;0.50;;;30.10;1.00;;;;;;5105609;28;20173;-78
2022/06/25 12:21:08;;;;;;;0.60;0.60;;;30.30;1.00;;;;;;5092090;28;20247;-78
2022/06/25 12:23:57;;;;;;;0.47;0.47;;;29.70;1.00;;;;;;5085280;28;20181;-78
2022/06/25 12:26:36;;;;;;;0.50;0.50;;;29.50;1.00;;;;;;5067449;28;20187;-77
2022/06/25 12:29:23;;;;;;;0.40;0.40;;;29.30;1.00;;;;;;5076058;28;20734;-78
2022/06/25 12:31:56;;;;;;;0.50;0.50;;;29.10;1.00;;;;;;5071813;28;20227;-78
2022/06/25 12:34:23;;;;;;;0.60;0.60;;;28.60;1.00;;;;;;5077321;28;20181;-79
2022/06/25 12:36:50;;;;;;;0.50;0.50;;;28.70;1.00;;;;;;5081993;28;20225;-78
2022/06/25 12:39:34;;;;;;;0.50;0.50;;;29.00;1.00;;;;;;5081767;28;20174;-77
2022/06/25 12:42:12;;;;;;;0.50;0.50;;;29.10;1.00;;;;;;5072527;28;20211;-78
2022/06/25 12:44:40;;;;;;;0.70;0.70;;;29.30;1.00;;;;;;5094337;28;20242;-78
2022/06/25 12:47:11;;;;;;;0.50;0.50;;;29.60;1.00;;;;;;5079335;28;20236;-78
2022/06/25 12:50:06;;;;;;;0.40;0.40;;;29.30;1.00;;;;;;5084426;28;20669;-78
2022/06/25 12:52:37;;;;;;;0.40;0.40;;;29.30;1.00;;;;;;5081142;28;20206;-77
2022/06/25 12:55:04;;;;;;;0.40;0.40;;;29.10;1.00;;;;;;5094130;28;20190;-78
2022/06/25 12:57:32;;;;;;;0.60;0.60;;;28.90;1.00;;;;;;5084209;28;20244;-78
2022/06/25 13:00:01;;;;;;;0.50;0.50;;;28.90;1.00;;;;;;5093281;28;20189;-78
2022/06/25 13:02:27;;;;;;;0.43;0.43;;;29.00;1.00;;;;;;5102395;28;20210;-78
2022/06/25 13:04:52;;;;;;;0.40;0.40;;;28.80;1.00;;;;;;5102524;28;20166;-78
2022/06/25 13:07:19;;;;;;;0.50;0.50;;;28.90;1.00;;;;;;5104594;28;20197;-78
2022/06/25 13:09:46;;;;;;;0.50;0.50;;;28.80;1.00;;;;;;5104280;28;20173;-78